createdAt,value
2018-09-12T00:01:30.477Z,13.59
2018-09-12T00:03:57.644Z,13.77
2018-09-12T00:06:24.979Z,13.85
2018-09-12T00:08:52.129Z,13.94
2018-09-12T00:11:19.344Z,13.81
2018-09-12T00:13:46.559Z,13.82
2018-09-12T00:16:13.700Z,13.79
2018-09-12T00:18:40.821Z,13.36
2018-09-12T00:21:08.170Z,12.80
2018-09-12T00:23:35.311Z,12.78
2018-09-12T00:26:02.477Z,12.91
2018-09-12T00:28:29.738Z,13.22
2018-09-12T00:30:56.994Z,13.15
2018-09-12T00:33:24.309Z,13.28
2018-09-12T00:35:51.473Z,13.25
2018-09-12T00:38:18.620Z,12.82
2018-09-12T00:40:45.801Z,13.07
2018-09-12T00:43:12.913Z,12.83
2018-09-12T00:45:40.004Z,12.74
2018-09-12T00:48:07.338Z,13.05
2018-09-12T00:50:34.484Z,13.19
2018-09-12T00:53:01.668Z,13.23
2018-09-12T00:55:28.898Z,13.26
2018-09-12T00:57:56.132Z,13.25
2018-09-12T01:00:23.421Z,13.38
2018-09-12T01:02:52.067Z,13.31
2018-09-12T01:05:19.273Z,13.19
2018-09-12T01:07:46.372Z,13.01
2018-09-12T01:10:13.623Z,13.24
2018-09-12T01:12:40.739Z,13.12
2018-09-12T01:15:07.922Z,13.09
2018-09-12T01:17:35.169Z,13.07
2018-09-12T01:20:02.488Z,12.93
2018-09-12T01:22:29.688Z,13.05
2018-09-12T01:24:56.832Z,13.02
2018-09-12T01:27:24.000Z,13.00
2018-09-12T01:29:51.517Z,12.94
2018-09-12T01:32:18.833Z,12.79
2018-09-12T01:34:46.013Z,12.69
2018-09-12T01:37:13.932Z,12.69
2018-09-12T01:39:41.081Z,12.67
2018-09-12T01:42:08.252Z,12.64
2018-09-12T01:44:35.348Z,12.69
2018-09-12T01:47:02.495Z,12.67
2018-09-12T01:49:29.620Z,12.58
2018-09-12T01:51:56.717Z,12.33
2018-09-12T01:54:23.801Z,12.16
2018-09-12T01:56:51.124Z,12.27
2018-09-12T01:59:20.833Z,12.32
2018-09-12T02:01:47.917Z,12.33
2018-09-12T02:04:15.142Z,12.49
2018-09-12T02:06:42.352Z,12.33
2018-09-12T02:09:13.608Z,12.32
2018-09-12T02:11:40.772Z,12.29
2018-09-12T02:14:07.930Z,12.06
2018-09-12T02:16:35.132Z,11.94
2018-09-12T02:19:02.589Z,11.78
2018-09-12T02:21:29.716Z,11.99
2018-09-12T02:23:56.897Z,12.09
2018-09-12T02:26:24.082Z,12.20
2018-09-12T02:28:51.253Z,12.25
2018-09-12T02:31:18.620Z,12.18
2018-09-12T02:33:45.841Z,11.41
2018-09-12T02:36:18.719Z,11.63
2018-09-12T02:38:45.811Z,11.82
2018-09-12T02:41:12.925Z,11.72
2018-09-12T02:43:40.169Z,11.95
2018-09-12T02:46:07.321Z,11.39
2018-09-12T02:48:34.596Z,11.46
2018-09-12T02:51:01.767Z,11.93
2018-09-12T02:53:28.875Z,12.09
2018-09-12T02:55:56.113Z,12.06
2018-09-12T02:58:23.252Z,12.06
2018-09-12T03:00:50.451Z,12.05
2018-09-12T03:03:18.452Z,12.02
2018-09-12T03:05:45.652Z,11.86
2018-09-12T03:08:12.856Z,11.83
2018-09-12T03:10:40.092Z,11.84
2018-09-12T03:13:07.261Z,11.91
2018-09-12T03:15:34.495Z,11.79
2018-09-12T03:18:01.708Z,11.59
2018-09-12T03:20:28.878Z,11.64
2018-09-12T03:22:56.028Z,11.68
2018-09-12T03:25:23.161Z,11.36
2018-09-12T03:27:50.271Z,11.60
2018-09-12T03:30:17.653Z,11.47
2018-09-12T03:32:44.931Z,11.30
2018-09-12T03:35:12.085Z,11.40
2018-09-12T03:37:40.239Z,11.47
2018-09-12T03:40:07.341Z,11.51
2018-09-12T03:42:34.471Z,11.27
2018-09-12T03:45:01.679Z,11.15
2018-09-12T03:47:28.821Z,11.09
2018-09-12T03:49:55.954Z,11.09
2018-09-12T03:52:23.159Z,11.02
2018-09-12T03:54:50.330Z,11.07
2018-09-12T03:57:17.564Z,11.06
2018-09-12T03:59:44.824Z,11.13
2018-09-12T04:02:12.034Z,10.90
2018-09-12T04:04:39.217Z,10.80
2018-09-12T04:07:06.437Z,10.70
2018-09-12T04:09:33.541Z,10.81
2018-09-12T04:12:00.888Z,10.99
2018-09-12T04:14:28.029Z,10.79
2018-09-12T04:16:55.247Z,10.50
2018-09-12T04:19:22.424Z,10.92
2018-09-12T04:21:49.570Z,10.83
2018-09-12T04:24:16.985Z,10.90
2018-09-12T04:26:44.228Z,10.86
2018-09-12T04:29:11.416Z,10.90
2018-09-12T04:31:38.652Z,10.91
2018-09-12T04:34:05.768Z,10.87
2018-09-12T04:36:32.997Z,10.41
2018-09-12T04:39:00.248Z,10.53
2018-09-12T04:41:27.405Z,10.90
2018-09-12T04:43:54.952Z,11.14
2018-09-12T04:46:22.194Z,11.15
2018-09-12T04:48:49.324Z,10.98
2018-09-12T04:51:17.433Z,11.09
2018-09-12T04:53:44.674Z,10.95
2018-09-12T04:56:11.873Z,10.84
2018-09-12T04:58:38.977Z,10.91
2018-09-12T05:01:06.243Z,10.72
2018-09-12T05:03:33.357Z,10.79
2018-09-12T05:06:00.478Z,10.85
2018-09-12T05:08:27.661Z,10.74
2018-09-12T05:10:54.841Z,10.82
2018-09-12T05:13:21.988Z,10.76
2018-09-12T05:15:49.116Z,10.80
2018-09-12T05:18:16.380Z,10.69
2018-09-12T05:20:43.704Z,10.75
2018-09-12T05:23:10.872Z,10.78
2018-09-12T05:25:38.084Z,10.77
2018-09-12T05:28:05.300Z,10.84
2018-09-12T05:30:32.502Z,10.75
2018-09-12T05:32:59.801Z,10.79
2018-09-12T05:35:27.011Z,10.95
2018-09-12T05:37:54.161Z,10.94
2018-09-12T05:40:21.305Z,10.97
2018-09-12T05:42:48.682Z,11.00
2018-09-12T05:45:15.876Z,11.19
2018-09-12T05:47:43.237Z,11.35
2018-09-12T05:50:10.404Z,11.47
2018-09-12T05:52:37.557Z,11.57
2018-09-12T05:55:05.244Z,11.78
2018-09-12T05:57:32.438Z,11.76
2018-09-12T05:59:59.691Z,11.94
2018-09-12T06:02:26.949Z,11.95
2018-09-12T06:04:54.082Z,12.04
2018-09-12T06:07:21.325Z,12.23
2018-09-12T06:09:48.425Z,12.25
2018-09-12T06:12:15.617Z,12.42
2018-09-12T06:14:42.784Z,12.34
2018-09-12T06:17:09.887Z,12.32
2018-09-12T06:19:37.001Z,12.55
2018-09-12T06:22:04.193Z,12.82
2018-09-12T06:24:31.332Z,12.96
2018-09-12T06:26:58.640Z,13.06
2018-09-12T06:29:25.856Z,13.27
2018-09-12T06:31:53.070Z,13.36
2018-09-12T06:34:20.249Z,13.54
2018-09-12T06:36:47.359Z,13.80
2018-09-12T06:39:14.611Z,14.09
2018-09-12T06:41:41.724Z,14.27
2018-09-12T06:44:08.904Z,14.64
2018-09-12T06:46:36.333Z,14.88
2018-09-12T06:49:03.633Z,15.13
2018-09-12T06:51:30.847Z,15.42
2018-09-12T06:53:58.098Z,15.64
2018-09-12T06:56:25.471Z,15.89
2018-09-12T06:58:52.733Z,16.19
2018-09-12T07:01:19.936Z,16.60
2018-09-12T07:03:47.028Z,16.89
2018-09-12T07:06:14.180Z,16.94
2018-09-12T07:08:41.427Z,17.29
2018-09-12T07:11:08.581Z,17.29
2018-09-12T07:13:35.757Z,17.40
2018-09-12T07:16:03.022Z,17.63
2018-09-12T07:18:30.117Z,17.68
2018-09-12T07:20:57.295Z,17.91
2018-09-12T07:23:24.517Z,18.15
2018-09-12T07:25:51.662Z,18.19
2018-09-12T07:28:18.924Z,18.44
2018-09-12T07:30:46.093Z,18.22
2018-09-12T07:33:13.220Z,18.47
2018-09-12T07:35:41.005Z,18.56
2018-09-12T07:38:08.168Z,18.95
2018-09-12T07:40:35.272Z,19.19
2018-09-12T07:43:02.477Z,19.17
2018-09-12T07:45:29.621Z,19.27
2018-09-12T07:47:56.829Z,19.69
2018-09-12T07:50:24.105Z,19.55
2018-09-12T07:52:51.281Z,19.55
2018-09-12T07:55:18.581Z,20.04
2018-09-12T07:57:45.727Z,20.33
2018-09-12T08:00:13.013Z,20.28
2018-09-12T08:02:40.267Z,20.48
2018-09-12T08:05:07.981Z,20.78
2018-09-12T08:07:35.065Z,21.02
2018-09-12T08:10:02.524Z,20.83
2018-09-12T08:12:29.624Z,20.64
2018-09-12T08:14:56.768Z,21.06
2018-09-12T08:17:24.264Z,21.39
2018-09-12T08:19:51.442Z,21.54
2018-09-12T08:22:18.604Z,21.78
2018-09-12T08:24:45.838Z,21.80
2018-09-12T08:27:12.998Z,22.04
2018-09-12T08:29:40.242Z,22.12
2018-09-12T08:32:07.482Z,22.30
2018-09-12T08:34:34.685Z,22.32
2018-09-12T08:37:01.973Z,22.20
2018-09-12T08:39:29.121Z,22.37
2018-09-12T08:41:56.295Z,22.29
2018-09-12T08:44:23.467Z,22.50
2018-09-12T08:46:50.616Z,22.49
2018-09-12T08:49:17.735Z,22.73
2018-09-12T08:51:44.933Z,22.69
2018-09-12T08:54:12.062Z,22.79
2018-09-12T08:56:39.345Z,22.85
2018-09-12T08:59:06.611Z,23.03
2018-09-12T09:01:33.847Z,23.21
2018-09-12T09:04:01.154Z,23.47
2018-09-12T09:06:28.249Z,23.47
2018-09-12T09:08:55.440Z,23.61
2018-09-12T09:11:22.745Z,23.69
2018-09-12T09:13:49.975Z,23.74
2018-09-12T09:16:17.191Z,23.88
2018-09-12T09:18:44.386Z,23.87
2018-09-12T09:21:11.605Z,24.21
2018-09-12T09:23:38.970Z,24.16
2018-09-12T09:26:06.223Z,24.17
2018-09-12T09:28:33.417Z,24.32
2018-09-12T09:31:00.696Z,24.53
2018-09-12T09:33:27.872Z,24.56
2018-09-12T09:35:54.996Z,24.52
2018-09-12T09:38:22.332Z,24.42
2018-09-12T09:40:49.568Z,24.73
2018-09-12T09:43:16.708Z,24.65
2018-09-12T09:45:44.036Z,24.51
2018-09-12T09:48:11.297Z,24.72
2018-09-12T09:50:38.388Z,24.85
2018-09-12T09:53:05.652Z,24.97
2018-09-12T09:55:32.817Z,25.03
2018-09-12T09:58:00.001Z,25.16
2018-09-12T10:00:32.937Z,25.20
2018-09-12T10:04:09.652Z,25.25
2018-09-12T10:06:42.326Z,25.16
2018-09-12T10:09:15.294Z,25.21
2018-09-12T10:11:42.582Z,25.28
2018-09-12T10:14:09.809Z,25.37
2018-09-12T10:16:36.986Z,25.44
2018-09-12T10:19:04.280Z,25.58
2018-09-12T10:21:31.423Z,25.69
2018-09-12T10:23:58.628Z,25.70
2018-09-12T10:26:25.876Z,25.78
2018-09-12T10:28:53.000Z,25.77
2018-09-12T10:31:20.498Z,26.00
2018-09-12T10:33:47.716Z,26.09
2018-09-12T10:36:14.850Z,26.07
2018-09-12T10:38:42.141Z,26.14
2018-09-12T10:41:09.409Z,26.34
2018-09-12T10:43:36.672Z,26.46
2018-09-12T10:46:04.074Z,26.44
2018-09-12T10:48:31.240Z,26.53
2018-09-12T10:50:58.474Z,26.56
2018-09-12T10:53:25.639Z,26.52
2018-09-12T10:55:52.812Z,26.62
2018-09-12T10:58:20.243Z,27.03
2018-09-12T11:00:47.529Z,27.16
2018-09-12T11:03:14.728Z,27.52
2018-09-12T11:05:42.016Z,27.92
2018-09-12T11:08:09.174Z,27.95
2018-09-12T11:10:36.369Z,28.16
2018-09-12T11:13:03.751Z,27.93
2018-09-12T11:15:31.072Z,27.91
2018-09-12T11:17:58.348Z,28.07
2018-09-12T11:20:25.546Z,28.33
2018-09-12T11:22:52.996Z,28.27
2018-09-12T11:25:20.202Z,28.42
2018-09-12T11:27:47.461Z,28.52
2018-09-12T11:30:14.661Z,28.76
2018-09-12T11:32:41.878Z,28.64
2018-09-12T11:35:09.024Z,28.67
2018-09-12T11:37:36.179Z,28.76
2018-09-12T11:40:04.711Z,28.63
2018-09-12T11:42:31.925Z,28.72
2018-09-12T11:44:59.099Z,28.65
2018-09-12T11:47:26.290Z,28.90
2018-09-12T11:49:57.443Z,29.22
2018-09-12T11:52:24.826Z,29.26
2018-09-12T11:54:52.034Z,29.43
2018-09-12T11:57:19.324Z,29.34
2018-09-12T11:59:46.527Z,29.42
2018-09-12T12:02:13.808Z,29.48
2018-09-12T12:04:40.958Z,29.57
2018-09-12T12:07:08.109Z,29.72
2018-09-12T12:09:35.324Z,29.55
2018-09-12T12:12:02.533Z,29.07
2018-09-12T12:14:29.751Z,29.39
2018-09-12T12:16:56.912Z,29.39
2018-09-12T12:19:24.882Z,29.35
2018-09-12T12:21:52.329Z,29.54
2018-09-12T12:24:19.534Z,29.88
2018-09-12T12:26:46.972Z,29.82
2018-09-12T12:29:14.213Z,30.12
2018-09-12T12:31:41.384Z,30.63
2018-09-12T12:34:08.807Z,30.42
2018-09-12T12:36:35.975Z,29.59
2018-09-12T12:39:05.164Z,29.34
2018-09-12T12:41:32.573Z,29.28
2018-09-12T12:44:00.189Z,29.30
2018-09-12T12:46:27.300Z,30.15
2018-09-12T12:48:54.557Z,30.17
2018-09-12T12:51:21.725Z,30.44
2018-09-12T12:53:48.870Z,30.17
2018-09-12T12:56:16.143Z,30.42
2018-09-12T12:58:43.310Z,30.60
2018-09-12T13:01:10.469Z,30.48
2018-09-12T13:03:38.405Z,30.78
2018-09-12T13:06:05.765Z,30.46
2018-09-12T13:08:32.933Z,30.79
2018-09-12T13:11:00.257Z,30.60
2018-09-12T13:13:27.417Z,30.15
2018-09-12T13:15:54.604Z,30.12
2018-09-12T13:18:21.767Z,30.29
2018-09-12T13:20:49.014Z,30.89
2018-09-12T13:23:16.305Z,31.25
2018-09-12T13:25:43.632Z,31.47
2018-09-12T13:28:10.790Z,31.52
2018-09-12T13:30:38.099Z,30.85
2018-09-12T13:33:05.589Z,30.81
2018-09-12T13:35:32.786Z,31.20
2018-09-12T13:38:00.017Z,31.72
2018-09-12T13:40:27.216Z,31.49
2018-09-12T13:42:54.342Z,31.56
2018-09-12T13:45:21.609Z,31.16
2018-09-12T13:47:48.803Z,31.12
2018-09-12T13:50:16.636Z,31.36
2018-09-12T13:52:44.597Z,31.09
2018-09-12T13:55:11.831Z,31.39
2018-09-12T13:57:39.041Z,31.26
2018-09-12T14:00:06.684Z,31.00
2018-09-12T14:02:33.833Z,31.09
2018-09-12T14:05:01.089Z,31.18
2018-09-12T14:07:28.337Z,31.32
2018-09-12T14:09:55.551Z,31.50
2018-09-12T14:12:22.687Z,31.55
2018-09-12T14:14:49.950Z,31.43
2018-09-12T14:17:17.165Z,31.62
2018-09-12T14:19:44.589Z,31.40
2018-09-12T14:22:11.756Z,31.77
2018-09-12T14:24:38.968Z,32.01
2018-09-12T14:27:06.174Z,31.87
2018-09-12T14:29:33.381Z,32.39
2018-09-12T14:32:00.556Z,32.26
2018-09-12T14:34:27.903Z,31.76
2018-09-12T14:36:55.044Z,31.83
2018-09-12T14:39:22.259Z,31.82
2018-09-12T14:41:49.532Z,32.42
2018-09-12T14:44:16.653Z,32.70
2018-09-12T14:46:43.993Z,32.66
2018-09-12T14:49:11.228Z,32.66
2018-09-12T14:51:38.381Z,32.80
2018-09-12T14:54:05.673Z,32.78
2018-09-12T14:56:32.854Z,32.97
2018-09-12T14:59:00.078Z,32.82
2018-09-12T15:01:27.527Z,32.81
2018-09-12T15:03:54.671Z,32.88
2018-09-12T15:06:21.853Z,33.03
2018-09-12T15:08:49.074Z,33.42
2018-09-12T15:11:16.217Z,33.68
2018-09-12T15:13:43.690Z,33.36
2018-09-12T15:16:10.999Z,33.40
2018-09-12T15:18:38.179Z,33.26
2018-09-12T15:21:05.417Z,33.55
2018-09-12T15:23:32.669Z,33.42
2018-09-12T15:25:59.931Z,32.91
2018-09-12T15:28:27.348Z,32.84
2018-09-12T15:30:54.578Z,32.95
2018-09-12T15:33:21.762Z,32.41
2018-09-12T15:35:49.517Z,32.87
2018-09-12T15:38:16.697Z,32.81
2018-09-12T15:40:43.919Z,33.18
2018-09-12T15:43:11.263Z,32.86
2018-09-12T15:45:38.525Z,33.15
2018-09-12T15:48:05.812Z,32.37
2018-09-12T15:50:33.038Z,30.80
2018-09-12T15:53:00.170Z,31.45
2018-09-12T15:55:27.430Z,30.83
2018-09-12T15:57:54.771Z,30.24
2018-09-12T16:00:21.911Z,29.34
2018-09-12T16:02:49.184Z,29.21
2018-09-12T16:05:16.375Z,29.60
2018-09-12T16:07:43.864Z,29.04
2018-09-12T16:10:11.218Z,29.37
2018-09-12T16:12:38.442Z,29.10
2018-09-12T16:15:05.636Z,29.09
2018-09-12T16:17:32.889Z,29.06
2018-09-12T16:20:00.092Z,28.98
2018-09-12T16:22:27.248Z,28.84
2018-09-12T16:24:54.488Z,28.77
2018-09-12T16:27:22.361Z,28.72
2018-09-12T16:29:49.543Z,28.65
2018-09-12T16:32:17.468Z,28.61
2018-09-12T16:34:44.683Z,28.56
2018-09-12T16:37:11.861Z,28.47
2018-09-12T16:39:39.177Z,28.51
2018-09-12T16:42:06.326Z,28.38
2018-09-12T16:44:33.483Z,28.35
2018-09-12T16:47:00.832Z,27.97
2018-09-12T16:49:28.012Z,28.10
2018-09-12T16:51:55.343Z,28.00
2018-09-12T16:54:22.793Z,27.77
2018-09-12T16:56:50.035Z,27.59
2018-09-12T16:59:17.173Z,27.47
2018-09-12T17:01:44.628Z,27.20
2018-09-12T17:04:11.803Z,26.84
2018-09-12T17:06:39.076Z,26.30
2018-09-12T17:09:07.909Z,26.35
2018-09-12T17:11:35.184Z,26.14
2018-09-12T17:14:02.397Z,25.89
2018-09-12T17:16:29.680Z,25.75
2018-09-12T17:18:56.890Z,25.65
2018-09-12T17:21:24.212Z,25.53
2018-09-12T17:23:51.612Z,25.49
2018-09-12T17:26:18.797Z,25.42
2018-09-12T17:28:46.801Z,25.37
2018-09-12T17:31:14.112Z,25.29
2018-09-12T17:33:41.345Z,25.20
2018-09-12T17:36:08.844Z,25.18
2018-09-12T17:38:36.176Z,25.07
2018-09-12T17:41:03.428Z,25.01
2018-09-12T17:43:30.565Z,24.82
2018-09-12T17:45:57.863Z,24.75
2018-09-12T17:48:25.132Z,24.44
2018-09-12T17:50:52.334Z,24.41
2018-09-12T17:53:19.607Z,24.28
2018-09-12T17:55:46.884Z,24.23
2018-09-12T17:58:14.259Z,24.21
2018-09-12T18:00:41.448Z,24.04
2018-09-12T18:03:08.744Z,23.94
2018-09-12T18:05:36.086Z,23.72
2018-09-12T18:08:03.406Z,23.91
2018-09-12T18:10:30.577Z,23.74
2018-09-12T18:12:58.101Z,23.43
2018-09-12T18:15:25.324Z,23.73
2018-09-12T18:17:52.928Z,23.54
2018-09-12T18:20:21.220Z,23.37
2018-09-12T18:22:48.520Z,23.08
2018-09-12T18:25:15.728Z,22.87
2018-09-12T18:27:43.069Z,22.10
2018-09-12T18:30:11.120Z,22.17
2018-09-12T18:32:38.371Z,22.16
2018-09-12T18:35:05.733Z,22.23
2018-09-12T18:37:33.108Z,21.85
2018-09-12T18:40:00.277Z,21.84
2018-09-12T18:42:27.569Z,21.96
2018-09-12T18:44:54.697Z,21.83
2018-09-12T18:47:21.891Z,21.90
2018-09-12T18:49:49.095Z,21.90
2018-09-12T18:52:16.313Z,21.66
2018-09-12T18:54:43.480Z,21.75
2018-09-12T18:57:10.755Z,21.48
2018-09-12T18:59:37.903Z,21.24
2018-09-12T19:02:05.141Z,21.29
2018-09-12T19:04:32.413Z,20.71
2018-09-12T19:06:59.768Z,20.55
2018-09-12T19:09:26.980Z,20.23
2018-09-12T19:11:54.169Z,19.71
2018-09-12T19:14:21.310Z,20.14
2018-09-12T19:16:48.534Z,20.49
2018-09-12T19:19:15.737Z,20.06
2018-09-12T19:21:42.908Z,20.06
2018-09-12T19:24:10.868Z,20.38
2018-09-12T19:26:38.099Z,20.23
2018-09-12T19:29:05.485Z,20.26
2018-09-12T19:31:32.884Z,20.33
2018-09-12T19:34:00.168Z,20.33
2018-09-12T19:36:27.237Z,20.33
2018-09-12T19:38:54.502Z,20.57
2018-09-12T19:41:21.652Z,20.44
2018-09-12T19:43:49.083Z,20.43
2018-09-12T19:46:16.406Z,20.35
2018-09-12T19:48:43.522Z,20.37
2018-09-12T19:51:16.047Z,20.15
2018-09-12T19:53:43.724Z,19.65
2018-09-12T19:56:12.343Z,19.59
2018-09-12T19:58:39.965Z,19.68
2018-09-12T20:01:07.318Z,19.88
2018-09-12T20:03:34.809Z,19.73
2018-09-12T20:06:02.296Z,19.63
2018-09-12T20:08:29.526Z,19.23
2018-09-12T20:10:56.697Z,18.89
2018-09-12T20:13:23.807Z,18.36
2018-09-12T20:15:51.082Z,18.27
2018-09-12T20:18:18.647Z,17.87
2018-09-12T20:20:45.908Z,18.33
2018-09-12T20:23:13.124Z,18.55
2018-09-12T20:25:40.401Z,18.66
2018-09-12T20:28:07.579Z,18.86
2018-09-12T20:30:34.705Z,18.79
2018-09-12T20:33:01.877Z,18.80
2018-09-12T20:35:29.081Z,18.95
2018-09-12T20:37:57.274Z,18.94
2018-09-12T20:40:24.617Z,18.68
2018-09-12T20:42:51.892Z,18.67
2018-09-12T20:45:19.109Z,18.42
2018-09-12T20:47:46.302Z,18.09
2018-09-12T20:50:13.568Z,17.38
2018-09-12T20:52:41.540Z,17.88
2018-09-12T20:55:08.754Z,18.06
2018-09-12T20:57:36.146Z,18.21
2018-09-12T21:00:04.097Z,18.41
2018-09-12T21:02:31.454Z,18.44
2018-09-12T21:04:58.903Z,18.46
2018-09-12T21:07:26.149Z,18.40
2018-09-12T21:09:53.289Z,18.14
2018-09-12T21:12:20.488Z,18.18
2018-09-12T21:14:47.820Z,18.10
2018-09-12T21:17:15.074Z,17.64
2018-09-12T21:19:42.885Z,17.85
2018-09-12T21:22:10.078Z,17.97
2018-09-12T21:24:37.278Z,17.95
2018-09-12T21:27:04.404Z,17.96
2018-09-12T21:29:31.721Z,17.93
2018-09-12T21:31:58.983Z,17.97
2018-09-12T21:34:26.188Z,17.40
2018-09-12T21:36:53.424Z,16.93
2018-09-12T21:39:20.623Z,17.16
2018-09-12T21:41:47.756Z,17.34
2018-09-12T21:44:15.123Z,17.48
2018-09-12T21:46:42.336Z,17.37
2018-09-12T21:49:09.455Z,17.54
2018-09-12T21:51:36.730Z,17.61
2018-09-12T21:54:03.913Z,17.59
2018-09-12T21:56:31.108Z,17.47
2018-09-12T21:58:58.316Z,17.59
2018-09-12T22:01:25.570Z,17.00
2018-09-12T22:03:53.276Z,16.44
2018-09-12T22:06:21.054Z,16.55
2018-09-12T22:08:48.289Z,16.88
2018-09-12T22:11:15.491Z,17.00
2018-09-12T22:13:42.728Z,17.06
2018-09-12T22:16:09.872Z,17.09
2018-09-12T22:18:37.060Z,17.16
2018-09-12T22:21:04.179Z,16.15
2018-09-12T22:23:31.328Z,16.01
2018-09-12T22:25:59.812Z,15.66
2018-09-12T22:28:27.089Z,16.17
2018-09-12T22:30:54.256Z,16.27
2018-09-12T22:33:21.532Z,16.29
2018-09-12T22:35:48.693Z,16.44
2018-09-12T22:38:15.866Z,16.63
2018-09-12T22:40:43.093Z,16.62
2018-09-12T22:43:10.302Z,16.45
2018-09-12T22:45:37.444Z,15.90
2018-09-12T22:48:04.833Z,15.84
2018-09-12T22:50:32.119Z,16.09
2018-09-12T22:52:59.292Z,16.33
2018-09-12T22:55:26.428Z,16.43
2018-09-12T22:57:53.526Z,16.48
2018-09-12T23:00:20.740Z,16.43
2018-09-12T23:02:48.009Z,16.34
2018-09-12T23:05:15.120Z,16.53
2018-09-12T23:07:42.508Z,16.62
2018-09-12T23:10:09.740Z,16.58
2018-09-12T23:12:36.877Z,16.26
2018-09-12T23:15:04.817Z,16.45
2018-09-12T23:17:31.953Z,16.36
2018-09-12T23:19:59.148Z,16.34
2018-09-12T23:22:26.975Z,16.12
2018-09-12T23:24:54.261Z,15.75
2018-09-12T23:27:21.436Z,15.90
2018-09-12T23:29:48.691Z,15.88
2018-09-12T23:32:15.809Z,14.98
2018-09-12T23:34:43.016Z,16.00
2018-09-12T23:37:10.324Z,16.20
2018-09-12T23:39:37.465Z,16.14
2018-09-12T23:42:04.677Z,16.09
2018-09-12T23:44:31.909Z,16.10
2018-09-12T23:46:59.042Z,16.25
2018-09-12T23:49:26.349Z,15.78
2018-09-12T23:51:53.628Z,15.89
2018-09-12T23:54:20.805Z,15.25
2018-09-12T23:56:47.981Z,15.68
2018-09-12T23:59:15.128Z,15.80
